OITM  Sahand  Airport

Maragheh, Iran

Add Bookmark
ICAO OITM
IATA ACP
Type Airport
Status Operational
Latitude
37° 20' 52" N
37.348000
Longitude
46° 7' 40" E
46.127899
Local (DST + 5) UTC (GMT + 4)
Apr 26, 2015 02:11 Apr 26, 2015 09:41
Sunrise-Sunset Local UTC
Begin Civil Twilight 06:07 01:37
Sunrise 06:35 02:05
Sunset 08:11 15:41
End Civil Twilight 08:39 16:09
VFR
VFR
MVFR
MVFR
IFR
VFR
LIFR
VFR
Unknown
Unavailable

Current Weather

METAR Observed VFR
OITM 260900Z 22004KT 9999 FEW035 17/M01 Q1023 Sun, Apr 26, 2015 @ 09:00 UTC
(41 Minutes ago)
Visual Flight Rules
Wind Visibility Clouds Conditions
220° at 4 knots (7 kph) 10 km or more
  • Few at 3,500 ft AGL
  • No significant weather
Temperatures Readings Precipitation
Current Temp
17°C
63°F
Dewpoint
-1°C
30°F
Humidity 30%
Altimeter 30.21" Hg
Sea Level Pressure 1,023 mb
Field Elevation
1,340 m
4,396 ft
None Recorded
-
-

CheckWX.com is intended as a tool to help pilots better visualize weather data. It is not intended as a substitute for an official weather briefing obtained from a Flight Service Station. CheckWX.com does not meet the FAA requirements for an official pre-flight weather briefing. Therefore, it's important that pilots still call and obtain an official FSS pre-flight weather briefing.

© 2007-2015 CheckWX.com
09:41:40 UTC